createdAt,value
2022-12-25T00:00:39.636Z,99198.22
2022-12-25T00:03:06.894Z,99209.56
2022-12-25T00:05:34.133Z,99212.41
2022-12-25T00:08:01.047Z,99176.00
2022-12-25T00:10:27.895Z,99224.41
2022-12-25T00:12:54.719Z,99209.66
2022-12-25T00:15:21.793Z,99194.94
2022-12-25T00:17:48.638Z,99208.38
2022-12-25T00:20:15.542Z,99201.22
2022-12-25T00:22:42.410Z,99187.13
2022-12-25T00:25:09.552Z,99182.38
2022-12-25T00:27:36.375Z,99188.66
2022-12-25T00:30:04.933Z,99199.91
2022-12-25T00:32:31.740Z,99194.28
2022-12-25T00:34:58.547Z,99195.97
2022-12-25T00:37:25.383Z,99192.94
2022-12-25T00:39:52.233Z,99204.59
2022-12-25T00:42:19.120Z,99207.00
2022-12-25T00:44:50.006Z,99217.78
2022-12-25T00:47:18.066Z,99215.56
2022-12-25T00:49:45.375Z,99216.41
2022-12-25T00:52:31.231Z,99224.66
2022-12-25T00:54:58.099Z,99200.22
2022-12-25T00:57:24.919Z,99227.56
2022-12-25T00:59:51.877Z,99228.47
2022-12-25T01:02:18.902Z,99213.34
2022-12-25T01:04:45.866Z,99233.69
2022-12-25T01:07:12.804Z,99221.69
2022-12-25T01:09:39.849Z,99216.31
2022-12-25T01:12:06.895Z,99234.28
2022-12-25T01:14:33.825Z,99224.69
2022-12-25T01:17:00.642Z,99228.84
2022-12-25T01:19:27.731Z,99215.72
2022-12-25T01:21:54.565Z,99214.63
2022-12-25T01:24:21.378Z,99224.47
2022-12-25T01:26:48.175Z,99226.91
2022-12-25T01:29:15.140Z,99199.00
2022-12-25T01:31:42.033Z,99228.13
2022-12-25T01:34:08.949Z,99235.19
2022-12-25T01:36:35.786Z,99231.53
2022-12-25T01:39:02.759Z,99232.34
2022-12-25T01:41:29.612Z,99229.06
2022-12-25T01:43:58.217Z,99203.56
2022-12-25T01:46:25.387Z,99219.91
2022-12-25T01:48:54.136Z,99216.47
2022-12-25T01:51:41.101Z,99222.97
2022-12-25T01:54:18.371Z,99223.34
2022-12-25T01:56:49.952Z,99225.28
2022-12-25T01:59:19.541Z,99216.16
2022-12-25T02:01:47.194Z,99218.66
2022-12-25T02:04:43.069Z,99210.09
2022-12-25T02:07:25.745Z,99226.19
2022-12-25T02:09:52.962Z,99210.53
2022-12-25T02:12:25.982Z,99199.78
2022-12-25T02:15:05.023Z,99219.34
2022-12-25T02:18:00.166Z,99242.66
2022-12-25T02:20:46.952Z,99214.72
2022-12-25T02:23:35.608Z,99224.59
2022-12-25T02:26:05.555Z,99227.22
2022-12-25T02:28:45.374Z,99219.09
2022-12-25T02:31:44.865Z,99227.81
2022-12-25T02:34:17.330Z,99251.25
2022-12-25T02:36:50.311Z,99237.78
2022-12-25T02:39:30.021Z,99244.16
2022-12-25T02:42:02.588Z,99223.28
2022-12-25T02:44:32.801Z,99240.88
2022-12-25T02:47:00.971Z,99250.31
2022-12-25T02:49:30.192Z,99251.47
2022-12-25T02:52:14.006Z,99270.63
2022-12-25T02:54:47.978Z,99240.13
2022-12-25T02:57:18.980Z,99281.38
2022-12-25T02:59:49.479Z,99224.03
2022-12-25T03:02:18.515Z,99242.31
2022-12-25T03:04:46.759Z,99244.00
2022-12-25T03:07:18.679Z,99250.50
2022-12-25T03:10:05.105Z,99267.91
2022-12-25T03:12:48.859Z,99260.91
2022-12-25T03:15:18.197Z,99264.84
2022-12-25T03:17:45.164Z,99282.59
2022-12-25T03:20:12.564Z,99292.94
2022-12-25T03:22:42.982Z,99272.03
2022-12-25T03:25:10.129Z,99255.38
2022-12-25T03:27:39.527Z,99270.84
2022-12-25T03:30:09.462Z,99285.53
2022-12-25T03:32:52.291Z,99270.31
2022-12-25T03:35:23.368Z,99286.47
2022-12-25T03:38:24.372Z,99283.94
2022-12-25T03:41:08.370Z,99289.03
2022-12-25T03:43:40.872Z,99298.78
2022-12-25T03:46:13.566Z,99296.66
2022-12-25T03:48:45.931Z,99286.34
2022-12-25T03:51:14.570Z,99305.81
2022-12-25T03:53:51.443Z,99282.63
2022-12-25T03:56:20.254Z,99280.53
2022-12-25T03:58:55.139Z,99302.06
2022-12-25T04:01:22.140Z,99287.09
2022-12-25T04:03:49.344Z,99295.34
2022-12-25T04:06:16.302Z,99289.97
2022-12-25T04:08:43.111Z,99301.03
2022-12-25T04:11:10.102Z,99305.19
2022-12-25T04:13:36.986Z,99287.13
2022-12-25T04:16:04.257Z,99334.94
2022-12-25T04:18:31.111Z,99304.69
2022-12-25T04:21:16.686Z,99329.53
2022-12-25T04:23:43.625Z,99295.75
2022-12-25T04:26:10.450Z,99299.78
2022-12-25T04:28:37.555Z,99333.31
2022-12-25T04:31:04.438Z,99307.34
2022-12-25T04:33:31.356Z,99318.44
2022-12-25T04:35:58.242Z,99323.78
2022-12-25T04:38:25.170Z,99335.66
2022-12-25T04:40:52.127Z,99373.88
2022-12-25T04:43:19.013Z,99327.59
2022-12-25T04:45:53.148Z,99327.88
2022-12-25T04:48:20.273Z,99332.75
2022-12-25T04:50:47.222Z,99330.28
2022-12-25T04:53:14.267Z,99353.34
2022-12-25T04:55:41.104Z,99344.44
2022-12-25T04:58:08.249Z,99344.91
2022-12-25T05:00:53.832Z,99353.41
2022-12-25T05:03:20.757Z,99359.81
2022-12-25T05:06:07.220Z,99359.19
2022-12-25T05:08:35.095Z,99335.63
2022-12-25T05:11:10.174Z,99366.00
2022-12-25T05:13:37.848Z,99374.56
2022-12-25T05:16:23.638Z,99388.03
2022-12-25T05:18:51.515Z,99369.63
2022-12-25T05:21:19.288Z,99374.50
2022-12-25T05:23:50.566Z,99383.91
2022-12-25T05:26:22.802Z,99395.44
2022-12-25T05:28:49.813Z,99386.78
2022-12-25T05:31:17.726Z,99382.28
2022-12-25T05:33:44.809Z,99370.41
2022-12-25T05:36:12.607Z,99390.94
2022-12-25T05:38:40.036Z,99381.59
2022-12-25T05:41:06.865Z,99370.06
2022-12-25T05:43:33.890Z,99380.75
2022-12-25T05:46:08.194Z,99373.69
2022-12-25T05:48:37.347Z,99388.66
2022-12-25T05:51:09.965Z,99400.72
2022-12-25T05:53:37.704Z,99423.09
2022-12-25T05:56:07.404Z,99417.28
2022-12-25T05:58:37.010Z,99407.06
2022-12-25T06:01:04.511Z,99396.41
2022-12-25T06:03:31.804Z,99398.34
2022-12-25T06:05:58.825Z,99408.66
2022-12-25T06:08:25.637Z,99419.16
2022-12-25T06:10:52.438Z,99438.16
2022-12-25T06:13:19.349Z,99415.50
2022-12-25T06:15:46.160Z,99433.00
2022-12-25T06:18:12.999Z,99433.16
2022-12-25T06:20:42.674Z,99442.63
2022-12-25T06:23:09.521Z,99435.03
2022-12-25T06:25:39.622Z,99431.25
2022-12-25T06:28:07.117Z,99432.00
2022-12-25T06:30:34.569Z,99436.13
2022-12-25T06:33:01.352Z,99415.47
2022-12-25T06:35:28.447Z,99440.66
2022-12-25T06:37:55.242Z,99429.38
2022-12-25T06:40:22.074Z,99442.31
2022-12-25T06:42:48.940Z,99460.88
2022-12-25T06:45:15.856Z,99448.00
2022-12-25T06:47:42.689Z,99461.41
2022-12-25T06:50:09.548Z,99430.50
2022-12-25T06:52:36.395Z,99462.56
2022-12-25T06:55:03.260Z,99456.81
2022-12-25T06:57:30.176Z,99475.81
2022-12-25T06:59:57.052Z,99466.06
2022-12-25T07:02:24.958Z,99476.44
2022-12-25T07:04:53.213Z,99460.63
2022-12-25T07:07:20.527Z,99481.03
2022-12-25T07:09:47.347Z,99475.25
2022-12-25T07:12:20.831Z,99481.00
2022-12-25T07:14:48.299Z,99466.09
2022-12-25T07:17:16.830Z,99455.28
2022-12-25T07:19:45.409Z,99457.22
2022-12-25T07:22:13.716Z,99475.91
2022-12-25T07:24:40.671Z,99468.50
2022-12-25T07:27:07.717Z,99481.41
2022-12-25T07:29:35.323Z,99463.28
2022-12-25T07:32:02.292Z,99460.13
2022-12-25T07:34:29.355Z,99497.41
2022-12-25T07:36:56.215Z,99499.13
2022-12-25T07:39:23.229Z,99487.19
2022-12-25T07:41:50.073Z,99470.31
2022-12-25T07:44:17.011Z,99467.25
2022-12-25T07:46:43.896Z,99479.53
2022-12-25T07:49:11.557Z,99484.63
2022-12-25T07:51:38.540Z,99466.69
2022-12-25T07:54:05.568Z,99516.53
2022-12-25T07:56:32.444Z,99499.59
2022-12-25T07:58:59.329Z,99496.44
2022-12-25T08:01:27.855Z,99474.41
2022-12-25T08:03:57.334Z,99487.81
2022-12-25T08:06:26.256Z,99468.25
2022-12-25T08:08:53.236Z,99473.66
2022-12-25T08:11:20.221Z,99499.34
2022-12-25T08:13:47.152Z,99496.09
2022-12-25T08:16:14.137Z,99492.69
2022-12-25T08:18:41.245Z,99508.69
2022-12-25T08:21:12.053Z,99497.09
2022-12-25T08:23:42.267Z,99517.06
2022-12-25T08:26:12.460Z,99498.09
2022-12-25T08:28:39.436Z,99518.81
2022-12-25T08:31:27.826Z,99534.13
2022-12-25T08:33:57.701Z,99524.38
2022-12-25T08:36:24.798Z,99508.91
2022-12-25T08:38:55.580Z,99525.31
2022-12-25T08:41:26.532Z,99523.53
2022-12-25T08:43:53.820Z,99527.69
2022-12-25T08:46:39.099Z,99505.09
2022-12-25T08:49:06.175Z,99546.88
2022-12-25T08:51:32.998Z,99539.38
2022-12-25T08:54:00.827Z,99528.22
2022-12-25T08:56:28.020Z,99527.81
2022-12-25T08:58:54.952Z,99552.75
2022-12-25T09:01:21.861Z,99540.47
2022-12-25T09:03:48.905Z,99548.81
2022-12-25T09:06:16.748Z,99536.91
2022-12-25T09:08:48.712Z,99539.25
2022-12-25T09:11:17.065Z,99557.66
2022-12-25T09:13:44.242Z,99557.59
2022-12-25T09:16:14.075Z,99523.81
2022-12-25T09:18:41.173Z,99550.22
2022-12-25T09:21:11.523Z,99549.06
2022-12-25T09:23:38.336Z,99558.84
2022-12-25T09:26:07.488Z,99564.06
2022-12-25T09:28:34.666Z,99573.84
2022-12-25T09:31:21.236Z,99564.06
2022-12-25T09:33:48.478Z,99580.84
2022-12-25T09:36:15.436Z,99567.88
2022-12-25T09:38:42.464Z,99574.59
2022-12-25T09:41:09.227Z,99571.06
2022-12-25T09:44:02.594Z,99551.06
2022-12-25T09:46:38.709Z,99572.94
2022-12-25T09:49:24.564Z,99569.25
2022-12-25T09:51:59.584Z,99552.09
2022-12-25T09:54:39.763Z,99598.22
2022-12-25T09:57:11.942Z,99587.72
2022-12-25T09:59:39.262Z,99590.81
2022-12-25T10:02:27.655Z,99589.59
2022-12-25T10:05:15.898Z,99591.81
2022-12-25T10:07:52.390Z,99612.84
2022-12-25T10:10:22.369Z,99627.31
2022-12-25T10:13:10.029Z,99598.22
2022-12-25T10:15:45.856Z,99595.94
2022-12-25T10:18:38.261Z,99610.81
2022-12-25T10:21:12.935Z,99602.19
2022-12-25T10:23:58.646Z,99592.06
2022-12-25T10:26:27.130Z,99608.97
2022-12-25T10:29:14.403Z,99614.28
2022-12-25T10:31:45.159Z,99611.78
2022-12-25T10:34:13.753Z,99591.06
2022-12-25T10:36:42.083Z,99609.47
2022-12-25T10:39:16.861Z,99620.75
2022-12-25T10:42:02.644Z,99602.34
2022-12-25T10:44:30.125Z,99616.38
2022-12-25T10:46:59.167Z,99616.38
2022-12-25T10:49:39.490Z,99614.38
2022-12-25T10:52:26.101Z,99638.84
2022-12-25T10:54:53.258Z,99637.34
2022-12-25T10:57:22.908Z,99626.75
2022-12-25T10:59:52.620Z,99629.75
2022-12-25T11:02:25.782Z,99626.34
2022-12-25T11:05:14.791Z,99628.13
2022-12-25T11:07:47.147Z,99652.69
2022-12-25T11:10:30.400Z,99659.03
2022-12-25T11:12:59.267Z,99678.16
2022-12-25T11:15:37.168Z,99656.50
2022-12-25T11:18:16.966Z,99645.78
2022-12-25T11:20:55.479Z,99674.13
2022-12-25T11:23:24.229Z,99664.03
2022-12-25T11:26:01.730Z,99651.78
2022-12-25T11:28:31.163Z,99679.59
2022-12-25T11:31:06.917Z,99645.50
2022-12-25T11:33:45.654Z,99661.38
2022-12-25T11:36:20.339Z,99641.59
2022-12-25T11:38:47.565Z,99672.97
2022-12-25T11:41:17.858Z,99665.56
2022-12-25T11:43:53.424Z,99667.66
2022-12-25T11:46:27.284Z,99685.13
2022-12-25T11:49:00.953Z,99687.03
2022-12-25T11:51:34.857Z,99693.97
2022-12-25T11:54:26.056Z,99681.50
2022-12-25T11:56:53.543Z,99699.09
2022-12-25T11:59:40.858Z,99677.06
2022-12-25T12:02:51.501Z,99698.09
2022-12-25T12:05:48.172Z,99707.09
2022-12-25T12:08:15.050Z,99703.53
2022-12-25T12:11:06.809Z,99702.44
2022-12-25T12:13:48.891Z,99705.75
2022-12-25T12:16:15.999Z,99712.97
2022-12-25T12:18:49.782Z,99729.47
2022-12-25T12:21:30.620Z,99736.81
2022-12-25T12:24:03.104Z,99729.00
2022-12-25T12:26:35.897Z,99730.34
2022-12-25T12:29:05.176Z,99721.06
2022-12-25T12:31:42.576Z,99717.34
2022-12-25T12:34:46.030Z,99728.53
2022-12-25T12:37:24.652Z,99660.13
2022-12-25T12:39:54.780Z,99725.69
2022-12-25T12:42:46.082Z,99748.31
2022-12-25T12:45:36.448Z,99737.19
2022-12-25T12:48:15.217Z,99728.56
2022-12-25T12:51:23.829Z,99753.47
2022-12-25T12:53:50.914Z,99736.69
2022-12-25T12:56:20.389Z,99738.63
2022-12-25T12:58:50.167Z,99754.81
2022-12-25T13:01:42.665Z,99762.59
2022-12-25T13:04:20.569Z,99751.63
2022-12-25T13:07:03.386Z,99757.22
2022-12-25T13:09:48.640Z,99772.09
2022-12-25T13:12:17.331Z,99773.78
2022-12-25T13:15:02.590Z,99766.84
2022-12-25T13:17:30.060Z,99763.09
2022-12-25T13:19:59.661Z,99784.16
2022-12-25T13:22:34.939Z,99784.34
2022-12-25T13:25:05.669Z,99791.19
2022-12-25T13:27:34.131Z,99806.28
2022-12-25T13:30:19.011Z,99782.91
2022-12-25T13:32:46.365Z,99771.78
2022-12-25T13:35:14.834Z,99776.63
2022-12-25T13:37:43.281Z,99798.22
2022-12-25T13:40:24.783Z,99792.59
2022-12-25T13:42:58.280Z,99792.16
2022-12-25T13:45:28.245Z,99787.59
2022-12-25T13:48:17.630Z,99795.75
2022-12-25T13:50:44.491Z,99795.44
2022-12-25T13:53:16.387Z,99794.91
2022-12-25T13:56:02.282Z,99809.69
2022-12-25T13:58:34.434Z,99788.16
2022-12-25T14:01:03.753Z,99807.81
2022-12-25T14:03:33.759Z,99834.69
2022-12-25T14:06:05.909Z,99818.66
2022-12-25T14:08:35.104Z,99832.00
2022-12-25T14:11:05.486Z,99826.56
2022-12-25T14:13:36.924Z,99860.69
2022-12-25T14:16:22.810Z,99865.94
2022-12-25T14:18:55.519Z,99857.97
2022-12-25T14:21:28.441Z,99859.28
2022-12-25T14:23:55.844Z,99860.19
2022-12-25T14:26:35.592Z,99859.34
2022-12-25T14:29:05.615Z,99857.19
2022-12-25T14:31:33.698Z,99855.56
2022-12-25T14:34:03.181Z,99867.22
2022-12-25T14:36:33.096Z,99877.38
2022-12-25T14:39:02.755Z,99862.63
2022-12-25T14:41:35.370Z,99865.97
2022-12-25T14:44:23.435Z,99851.19
2022-12-25T14:47:08.553Z,99861.59
2022-12-25T14:49:35.549Z,99883.13
2022-12-25T14:52:25.685Z,99869.00
2022-12-25T14:55:06.521Z,99871.53
2022-12-25T14:57:41.285Z,99879.63
2022-12-25T15:00:51.064Z,99857.50
2022-12-25T15:03:24.677Z,99867.94
2022-12-25T15:06:19.192Z,99875.72
2022-12-25T15:09:16.798Z,99899.88
2022-12-25T15:11:47.070Z,99816.13
2022-12-25T15:14:14.093Z,99886.88
2022-12-25T15:16:45.822Z,99886.25
2022-12-25T15:19:26.458Z,99888.66
2022-12-25T15:21:54.319Z,99899.81
2022-12-25T15:24:22.799Z,99901.81
2022-12-25T15:26:49.942Z,99899.53
2022-12-25T15:29:27.581Z,99897.75
2022-12-25T15:32:04.277Z,99895.53
2022-12-25T15:34:31.233Z,99886.63
2022-12-25T15:36:58.129Z,99868.44
2022-12-25T15:39:24.982Z,99933.84
2022-12-25T15:41:51.961Z,99913.28
2022-12-25T15:44:18.820Z,99870.41
2022-12-25T15:46:46.089Z,99891.72
2022-12-25T15:49:14.919Z,99924.03
2022-12-25T15:51:43.279Z,99910.75
2022-12-25T15:54:10.718Z,99937.44
2022-12-25T15:56:48.003Z,99915.53
2022-12-25T15:59:17.143Z,99899.69
2022-12-25T16:01:49.662Z,99913.31
2022-12-25T16:04:35.782Z,99902.97
2022-12-25T16:07:02.832Z,99899.06
2022-12-25T16:09:29.757Z,99905.34
2022-12-25T16:11:56.803Z,99928.63
2022-12-25T16:14:23.862Z,99917.53
2022-12-25T16:16:51.018Z,99907.69
2022-12-25T16:19:17.855Z,99901.03
2022-12-25T16:21:47.112Z,99915.34
2022-12-25T16:24:15.013Z,99937.94
2022-12-25T16:26:43.652Z,99926.03
2022-12-25T16:29:12.409Z,99935.56
2022-12-25T16:31:40.746Z,99932.13
2022-12-25T16:34:08.652Z,99944.97
2022-12-25T16:36:36.469Z,99923.69
2022-12-25T16:39:04.924Z,99939.59
2022-12-25T16:41:33.571Z,99929.44
2022-12-25T16:44:10.245Z,99935.22
2022-12-25T16:46:41.070Z,99936.63
2022-12-25T16:49:10.982Z,99934.78
2022-12-25T16:51:46.374Z,99922.00
2022-12-25T16:54:20.014Z,99950.91
2022-12-25T16:56:47.790Z,99935.47
2022-12-25T16:59:15.145Z,99941.72
2022-12-25T17:01:42.342Z,99942.41
2022-12-25T17:04:10.069Z,99956.19
2022-12-25T17:06:37.826Z,99936.72
2022-12-25T17:09:23.467Z,99930.34
2022-12-25T17:11:50.493Z,99937.41
2022-12-25T17:14:36.545Z,99938.16
2022-12-25T17:17:04.018Z,99945.63
2022-12-25T17:19:31.720Z,99935.41
2022-12-25T17:21:59.570Z,99923.16
2022-12-25T17:24:27.504Z,99936.19
2022-12-25T17:26:56.258Z,99936.34
2022-12-25T17:29:23.231Z,99926.31
2022-12-25T17:31:51.232Z,99944.38
2022-12-25T17:34:18.820Z,99928.00
2022-12-25T17:36:45.827Z,99934.25
2022-12-25T17:39:31.347Z,99963.47
2022-12-25T17:42:16.837Z,99946.06
2022-12-25T17:44:43.875Z,99969.38
2022-12-25T17:47:30.218Z,99998.38
2022-12-25T17:49:57.651Z,99965.16
2022-12-25T17:52:24.527Z,99966.78
2022-12-25T17:54:51.757Z,99975.38
2022-12-25T17:57:18.719Z,99967.88
2022-12-25T17:59:45.899Z,99956.44
2022-12-25T18:02:34.568Z,99970.03
2022-12-25T18:05:01.906Z,99975.16
2022-12-25T18:07:28.913Z,99968.34
2022-12-25T18:09:56.991Z,99952.94
2022-12-25T18:12:23.949Z,99969.25
2022-12-25T18:14:56.664Z,99978.13
2022-12-25T18:17:23.522Z,99988.34
2022-12-25T18:19:51.747Z,99967.44
2022-12-25T18:22:18.979Z,99957.81
2022-12-25T18:24:47.193Z,99955.53
2022-12-25T18:27:14.599Z,99971.72
2022-12-25T18:29:42.361Z,99989.22
2022-12-25T18:32:09.639Z,99987.38
2022-12-25T18:34:56.255Z,99962.97
2022-12-25T18:37:24.957Z,99999.50
2022-12-25T18:39:56.270Z,99991.50
2022-12-25T18:42:23.395Z,99987.78
2022-12-25T18:44:51.032Z,99995.00
2022-12-25T18:47:18.313Z,100000.56
2022-12-25T18:49:47.212Z,99995.56
2022-12-25T18:52:47.808Z,100030.59
2022-12-25T18:55:05.174Z,99984.94
2022-12-25T18:57:33.321Z,100000.09
2022-12-25T19:00:02.540Z,100002.53
2022-12-25T19:02:29.541Z,99998.63
2022-12-25T19:04:56.651Z,100004.53
2022-12-25T19:07:23.963Z,99993.59
2022-12-25T19:09:51.605Z,100010.06
2022-12-25T19:12:19.993Z,99983.19
2022-12-25T19:14:48.549Z,99990.97
2022-12-25T19:17:31.363Z,100005.66
2022-12-25T19:19:59.386Z,99994.34
2022-12-25T19:22:26.984Z,99997.03
2022-12-25T19:24:55.543Z,99988.31
2022-12-25T19:27:41.207Z,99975.97
2022-12-25T19:30:10.818Z,99988.16
2022-12-25T19:32:38.392Z,99984.94
2022-12-25T19:35:06.337Z,99985.41
2022-12-25T19:37:35.140Z,100010.53
2022-12-25T19:40:02.188Z,100012.72
2022-12-25T19:42:29.266Z,99995.22
2022-12-25T19:44:59.248Z,100024.50
2022-12-25T19:47:26.434Z,100011.53
2022-12-25T19:49:54.414Z,100034.84
2022-12-25T19:52:23.414Z,100045.28
2022-12-25T19:54:51.391Z,100028.06
2022-12-25T19:57:18.367Z,100040.28
2022-12-25T19:59:46.359Z,100041.53
2022-12-25T20:02:13.339Z,100050.84
2022-12-25T20:04:40.328Z,100041.97
2022-12-25T20:07:07.185Z,100050.22
2022-12-25T20:09:52.983Z,100047.47
2022-12-25T20:12:19.948Z,100050.22
2022-12-25T20:14:46.918Z,100041.19
2022-12-25T20:17:16.222Z,100034.63
2022-12-25T20:19:43.344Z,100045.44
2022-12-25T20:22:10.479Z,100022.13
2022-12-25T20:24:37.708Z,100022.09
2022-12-25T20:27:04.972Z,100014.75
2022-12-25T20:29:50.440Z,100032.59
2022-12-25T20:32:17.648Z,100038.44
2022-12-25T20:34:44.672Z,100036.44
2022-12-25T20:37:13.319Z,100032.81
2022-12-25T20:39:40.526Z,100010.06
2022-12-25T20:42:07.454Z,100052.03
2022-12-25T20:44:34.369Z,100050.78
2022-12-25T20:47:01.287Z,100042.41
2022-12-25T20:49:28.307Z,100043.63
2022-12-25T20:51:59.782Z,100041.50
2022-12-25T20:54:29.976Z,100053.09
2022-12-25T20:56:56.903Z,100064.53
2022-12-25T20:59:23.965Z,100059.53
2022-12-25T21:01:50.967Z,100049.44
2022-12-25T21:04:17.944Z,100072.81
2022-12-25T21:06:44.769Z,100064.88
2022-12-25T21:09:11.796Z,100064.53
2022-12-25T21:11:38.691Z,100059.50
2022-12-25T21:14:05.585Z,100060.56
2022-12-25T21:16:32.430Z,100077.50
2022-12-25T21:18:59.477Z,100080.28
2022-12-25T21:21:26.416Z,100076.28
2022-12-25T21:23:55.931Z,100081.19
2022-12-25T21:26:26.332Z,100083.94
2022-12-25T21:28:56.073Z,100073.56
2022-12-25T21:31:24.749Z,100066.09
2022-12-25T21:33:51.736Z,100075.22
2022-12-25T21:36:34.564Z,100075.41
2022-12-25T21:39:07.128Z,100080.09
2022-12-25T21:41:36.590Z,100073.41
2022-12-25T21:44:03.701Z,100072.50
2022-12-25T21:46:31.419Z,100090.63
2022-12-25T21:48:59.565Z,100098.56
2022-12-25T21:51:29.713Z,100092.47
2022-12-25T21:53:57.017Z,100116.47
2022-12-25T21:56:23.875Z,100086.00
2022-12-25T21:58:50.681Z,100080.31
2022-12-25T22:01:17.746Z,100104.91
2022-12-25T22:03:45.184Z,100106.00
2022-12-25T22:06:20.948Z,100111.84
2022-12-25T22:08:48.473Z,100103.75
2022-12-25T22:11:15.349Z,100104.91
2022-12-25T22:14:00.542Z,100098.94
2022-12-25T22:16:27.454Z,100090.44
2022-12-25T22:18:54.695Z,100125.09
2022-12-25T22:21:22.077Z,100106.72
2022-12-25T22:24:07.869Z,100125.31
2022-12-25T22:26:35.232Z,100123.75
2022-12-25T22:29:02.171Z,100124.34
2022-12-25T22:31:29.214Z,100129.50
2022-12-25T22:33:56.079Z,100123.78
2022-12-25T22:36:23.008Z,100125.72
2022-12-25T22:38:49.863Z,100109.84
2022-12-25T22:41:16.797Z,100133.19
2022-12-25T22:44:15.911Z,100142.84
2022-12-25T22:46:30.550Z,100114.03
2022-12-25T22:48:57.386Z,100141.19
2022-12-25T22:51:24.225Z,100136.63
2022-12-25T22:53:51.039Z,100143.97
2022-12-25T22:56:18.041Z,100124.91
2022-12-25T22:59:03.252Z,100141.97
2022-12-25T23:03:58.292Z,100125.94
2022-12-25T23:06:25.390Z,100152.31
2022-12-25T23:08:52.233Z,100126.66
2022-12-25T23:11:19.335Z,100145.09
2022-12-25T23:13:46.219Z,100134.81
2022-12-25T23:16:15.158Z,100136.16
2022-12-25T23:18:41.970Z,100142.22
2022-12-25T23:21:15.532Z,100148.41
2022-12-25T23:23:42.387Z,100144.59
2022-12-25T23:26:09.311Z,100168.19
2022-12-25T23:28:42.106Z,100167.00
2022-12-25T23:31:09.067Z,100151.59
2022-12-25T23:33:36.011Z,100159.34
2022-12-25T23:36:03.108Z,100162.63
2022-12-25T23:38:29.926Z,100155.38
2022-12-25T23:40:56.827Z,100149.66
2022-12-25T23:43:23.716Z,100173.72
2022-12-25T23:45:50.622Z,100178.13
2022-12-25T23:48:17.458Z,100157.03
2022-12-25T23:50:44.468Z,100175.13
2022-12-25T23:53:11.259Z,100161.53
2022-12-25T23:55:38.222Z,100163.91
2022-12-25T23:58:05.707Z,100169.00
